sensor_id;sensor_type;location;lat;lon;timestamp;P1;durP1;ratioP1;P2;durP2;ratioP2
16770;SDS011;8503;52.472;13.344;2023-05-07T00:00:03;11.40;;;6.97;;
16770;SDS011;8503;52.472;13.344;2023-05-07T00:01:30;11.02;;;6.28;;
16770;SDS011;8503;52.472;13.344;2023-05-07T00:02:52;10.25;;;7.50;;
16770;SDS011;8503;52.472;13.344;2023-05-07T00:04:17;10.05;;;7.18;;
16770;SDS011;8503;52.472;13.344;2023-05-07T00:05:42;11.27;;;7.45;;
16770;SDS011;8503;52.472;13.344;2023-05-07T00:07:05;12.70;;;7.88;;
16770;SDS011;8503;52.472;13.344;2023-05-07T00:08:28;9.82;;;6.53;;
16770;SDS011;8503;52.472;13.344;2023-05-07T00:09:51;12.27;;;7.40;;
16770;SDS011;8503;52.472;13.344;2023-05-07T00:11:14;10.82;;;6.68;;
16770;SDS011;8503;52.472;13.344;2023-05-07T00:12:37;11.23;;;7.63;;
16770;SDS011;8503;52.472;13.344;2023-05-07T00:14:00;12.02;;;7.45;;
16770;SDS011;8503;52.472;13.344;2023-05-07T00:15:23;10.50;;;6.60;;
16770;SDS011;8503;52.472;13.344;2023-05-07T00:16:46;12.35;;;6.40;;
16770;SDS011;8503;52.472;13.344;2023-05-07T00:18:10;9.75;;;6.50;;
16770;SDS011;8503;52.472;13.344;2023-05-07T00:19:35;14.00;;;7.28;;
16770;SDS011;8503;52.472;13.344;2023-05-07T00:20:58;12.23;;;6.95;;
16770;SDS011;8503;52.472;13.344;2023-05-07T00:22:21;13.02;;;6.30;;
16770;SDS011;8503;52.472;13.344;2023-05-07T00:23:44;11.45;;;7.22;;
16770;SDS011;8503;52.472;13.344;2023-05-07T00:25:07;9.50;;;7.18;;
16770;SDS011;8503;52.472;13.344;2023-05-07T00:26:31;10.00;;;6.43;;
16770;SDS011;8503;52.472;13.344;2023-05-07T00:27:54;13.13;;;5.53;;
16770;SDS011;8503;52.472;13.344;2023-05-07T00:29:18;9.98;;;5.88;;
16770;SDS011;8503;52.472;13.344;2023-05-07T00:30:42;7.88;;;5.03;;
16770;SDS011;8503;52.472;13.344;2023-05-07T00:32:04;8.05;;;4.97;;
16770;SDS011;8503;52.472;13.344;2023-05-07T00:33:28;8.88;;;6.07;;
16770;SDS011;8503;52.472;13.344;2023-05-07T00:34:52;8.98;;;5.78;;
16770;SDS011;8503;52.472;13.344;2023-05-07T00:36:16;8.88;;;6.03;;
16770;SDS011;8503;52.472;13.344;2023-05-07T00:37:40;11.10;;;6.00;;
16770;SDS011;8503;52.472;13.344;2023-05-07T00:39:02;12.25;;;6.85;;
16770;SDS011;8503;52.472;13.344;2023-05-07T00:40:26;10.45;;;6.75;;
16770;SDS011;8503;52.472;13.344;2023-05-07T00:41:49;10.98;;;6.30;;
16770;SDS011;8503;52.472;13.344;2023-05-07T00:43:12;11.45;;;6.18;;
16770;SDS011;8503;52.472;13.344;2023-05-07T00:44:36;9.35;;;6.47;;
16770;SDS011;8503;52.472;13.344;2023-05-07T00:45:58;11.00;;;5.60;;
16770;SDS011;8503;52.472;13.344;2023-05-07T00:47:22;8.23;;;6.03;;
16770;SDS011;8503;52.472;13.344;2023-05-07T00:48:45;9.30;;;6.15;;
16770;SDS011;8503;52.472;13.344;2023-05-07T00:50:10;8.10;;;6.35;;
16770;SDS011;8503;52.472;13.344;2023-05-07T00:51:34;8.95;;;6.47;;
16770;SDS011;8503;52.472;13.344;2023-05-07T00:52:58;10.02;;;6.32;;
16770;SDS011;8503;52.472;13.344;2023-05-07T00:54:21;10.80;;;6.85;;
16770;SDS011;8503;52.472;13.344;2023-05-07T00:55:44;9.90;;;6.47;;
16770;SDS011;8503;52.472;13.344;2023-05-07T00:57:08;8.98;;;5.57;;
16770;SDS011;8503;52.472;13.344;2023-05-07T00:58:32;10.65;;;6.22;;
16770;SDS011;8503;52.472;13.344;2023-05-07T00:59:55;10.15;;;6.53;;
16770;SDS011;8503;52.472;13.344;2023-05-07T01:01:18;7.20;;;5.63;;
16770;SDS011;8503;52.472;13.344;2023-05-07T01:02:42;9.80;;;5.70;;
16770;SDS011;8503;52.472;13.344;2023-05-07T01:04:06;10.55;;;6.45;;
16770;SDS011;8503;52.472;13.344;2023-05-07T01:05:32;6.20;;;5.07;;
16770;SDS011;8503;52.472;13.344;2023-05-07T01:06:56;8.68;;;5.90;;
16770;SDS011;8503;52.472;13.344;2023-05-07T01:08:20;9.25;;;5.63;;
16770;SDS011;8503;52.472;13.344;2023-05-07T01:09:47;11.23;;;6.30;;
16770;SDS011;8503;52.472;13.344;2023-05-07T01:11:12;8.25;;;5.40;;
16770;SDS011;8503;52.472;13.344;2023-05-07T01:12:36;8.48;;;5.78;;
16770;SDS011;8503;52.472;13.344;2023-05-07T01:14:00;8.18;;;5.28;;
16770;SDS011;8503;52.472;13.344;2023-05-07T01:15:24;6.65;;;4.38;;
16770;SDS011;8503;52.472;13.344;2023-05-07T01:16:48;8.82;;;6.22;;
16770;SDS011;8503;52.472;13.344;2023-05-07T01:18:14;9.48;;;6.72;;
16770;SDS011;8503;52.472;13.344;2023-05-07T01:19:41;15.10;;;6.78;;
16770;SDS011;8503;52.472;13.344;2023-05-07T01:21:06;7.30;;;6.00;;
16770;SDS011;8503;52.472;13.344;2023-05-07T01:22:31;10.18;;;6.25;;
16770;SDS011;8503;52.472;13.344;2023-05-07T01:23:54;10.65;;;6.65;;
16770;SDS011;8503;52.472;13.344;2023-05-07T01:25:21;8.90;;;6.75;;
16770;SDS011;8503;52.472;13.344;2023-05-07T01:26:45;9.52;;;6.32;;
16770;SDS011;8503;52.472;13.344;2023-05-07T01:28:07;9.70;;;6.10;;
16770;SDS011;8503;52.472;13.344;2023-05-07T01:29:31;14.77;;;6.22;;
16770;SDS011;8503;52.472;13.344;2023-05-07T01:30:54;10.77;;;6.82;;
16770;SDS011;8503;52.472;13.344;2023-05-07T01:32:23;7.22;;;5.65;;
16770;SDS011;8503;52.472;13.344;2023-05-07T01:33:50;11.68;;;6.40;;
16770;SDS011;8503;52.472;13.344;2023-05-07T01:35:15;9.63;;;6.18;;
16770;SDS011;8503;52.472;13.344;2023-05-07T01:36:40;9.23;;;6.50;;
16770;SDS011;8503;52.472;13.344;2023-05-07T01:38:07;6.53;;;4.32;;
16770;SDS011;8503;52.472;13.344;2023-05-07T01:39:31;6.60;;;4.10;;
16770;SDS011;8503;52.472;13.344;2023-05-07T01:40:54;10.15;;;4.80;;
16770;SDS011;8503;52.472;13.344;2023-05-07T01:42:18;10.23;;;6.93;;
16770;SDS011;8503;52.472;13.344;2023-05-07T01:43:40;8.77;;;5.75;;
16770;SDS011;8503;52.472;13.344;2023-05-07T01:45:04;8.98;;;6.57;;
16770;SDS011;8503;52.472;13.344;2023-05-07T01:46:28;9.65;;;6.93;;
16770;SDS011;8503;52.472;13.344;2023-05-07T01:47:52;8.27;;;6.30;;
16770;SDS011;8503;52.472;13.344;2023-05-07T01:49:16;9.82;;;6.70;;
16770;SDS011;8503;52.472;13.344;2023-05-07T01:50:40;14.43;;;5.63;;
16770;SDS011;8503;52.472;13.344;2023-05-07T01:52:03;11.80;;;6.60;;
16770;SDS011;8503;52.472;13.344;2023-05-07T01:53:28;15.55;;;7.07;;
16770;SDS011;8503;52.472;13.344;2023-05-07T01:54:53;7.05;;;4.80;;
16770;SDS011;8503;52.472;13.344;2023-05-07T01:56:17;8.20;;;5.13;;
16770;SDS011;8503;52.472;13.344;2023-05-07T01:57:39;9.07;;;6.35;;
16770;SDS011;8503;52.472;13.344;2023-05-07T01:59:03;9.85;;;6.60;;
16770;SDS011;8503;52.472;13.344;2023-05-07T02:00:27;11.00;;;5.50;;
16770;SDS011;8503;52.472;13.344;2023-05-07T02:01:51;9.43;;;5.85;;
16770;SDS011;8503;52.472;13.344;2023-05-07T02:03:13;8.13;;;5.70;;
16770;SDS011;8503;52.472;13.344;2023-05-07T02:04:38;11.93;;;5.93;;
16770;SDS011;8503;52.472;13.344;2023-05-07T02:06:00;9.65;;;6.18;;
16770;SDS011;8503;52.472;13.344;2023-05-07T02:07:24;7.18;;;5.22;;
16770;SDS011;8503;52.472;13.344;2023-05-07T02:08:48;8.77;;;6.32;;
16770;SDS011;8503;52.472;13.344;2023-05-07T02:10:11;6.78;;;4.72;;
16770;SDS011;8503;52.472;13.344;2023-05-07T02:11:34;8.90;;;4.47;;
16770;SDS011;8503;52.472;13.344;2023-05-07T02:12:57;10.88;;;5.88;;
16770;SDS011;8503;52.472;13.344;2023-05-07T02:14:21;12.07;;;5.25;;
16770;SDS011;8503;52.472;13.344;2023-05-07T02:15:44;7.47;;;5.15;;
16770;SDS011;8503;52.472;13.344;2023-05-07T02:17:10;11.88;;;6.13;;
16770;SDS011;8503;52.472;13.344;2023-05-07T02:18:33;6.25;;;4.60;;
16770;SDS011;8503;52.472;13.344;2023-05-07T02:19:57;9.80;;;6.40;;
16770;SDS011;8503;52.472;13.344;2023-05-07T02:21:21;8.95;;;6.03;;
16770;SDS011;8503;52.472;13.344;2023-05-07T02:22:44;9.63;;;5.43;;
16770;SDS011;8503;52.472;13.344;2023-05-07T02:24:11;8.98;;;6.07;;
16770;SDS011;8503;52.472;13.344;2023-05-07T02:25:35;10.13;;;6.03;;
16770;SDS011;8503;52.472;13.344;2023-05-07T02:26:57;10.70;;;6.38;;
16770;SDS011;8503;52.472;13.344;2023-05-07T02:28:23;8.80;;;6.07;;
16770;SDS011;8503;52.472;13.344;2023-05-07T02:29:46;7.90;;;5.45;;
16770;SDS011;8503;52.472;13.344;2023-05-07T02:31:09;9.93;;;6.53;;
16770;SDS011;8503;52.472;13.344;2023-05-07T02:32:33;8.63;;;6.20;;
16770;SDS011;8503;52.472;13.344;2023-05-07T02:33:56;8.25;;;5.97;;
16770;SDS011;8503;52.472;13.344;2023-05-07T02:35:22;11.27;;;6.13;;
16770;SDS011;8503;52.472;13.344;2023-05-07T02:36:45;15.43;;;6.10;;
16770;SDS011;8503;52.472;13.344;2023-05-07T02:38:08;6.32;;;5.05;;
16770;SDS011;8503;52.472;13.344;2023-05-07T02:39:33;6.90;;;5.65;;
16770;SDS011;8503;52.472;13.344;2023-05-07T02:40:58;13.02;;;6.13;;
16770;SDS011;8503;52.472;13.344;2023-05-07T02:42:20;9.60;;;6.35;;
16770;SDS011;8503;52.472;13.344;2023-05-07T02:43:44;9.82;;;6.85;;
16770;SDS011;8503;52.472;13.344;2023-05-07T02:45:08;8.88;;;6.03;;
16770;SDS011;8503;52.472;13.344;2023-05-07T02:46:31;8.23;;;5.97;;
16770;SDS011;8503;52.472;13.344;2023-05-07T02:47:54;12.65;;;6.95;;
16770;SDS011;8503;52.472;13.344;2023-05-07T02:49:17;9.85;;;6.07;;
16770;SDS011;8503;52.472;13.344;2023-05-07T02:50:41;10.20;;;6.72;;
16770;SDS011;8503;52.472;13.344;2023-05-07T02:52:04;9.48;;;6.47;;
16770;SDS011;8503;52.472;13.344;2023-05-07T02:53:28;9.32;;;6.20;;
16770;SDS011;8503;52.472;13.344;2023-05-07T02:54:52;9.45;;;5.40;;
16770;SDS011;8503;52.472;13.344;2023-05-07T02:56:16;9.23;;;5.30;;
16770;SDS011;8503;52.472;13.344;2023-05-07T02:57:38;11.75;;;5.63;;
16770;SDS011;8503;52.472;13.344;2023-05-07T02:59:02;8.40;;;5.05;;
16770;SDS011;8503;52.472;13.344;2023-05-07T03:00:24;6.93;;;4.30;;
16770;SDS011;8503;52.472;13.344;2023-05-07T03:01:48;8.07;;;6.07;;
16770;SDS011;8503;52.472;13.344;2023-05-07T03:03:11;11.30;;;5.07;;
16770;SDS011;8503;52.472;13.344;2023-05-07T03:04:34;10.32;;;5.22;;
16770;SDS011;8503;52.472;13.344;2023-05-07T03:05:58;9.57;;;5.88;;
16770;SDS011;8503;52.472;13.344;2023-05-07T03:07:22;6.35;;;4.78;;
16770;SDS011;8503;52.472;13.344;2023-05-07T03:08:44;10.63;;;5.90;;
16770;SDS011;8503;52.472;13.344;2023-05-07T03:10:09;9.93;;;6.18;;
16770;SDS011;8503;52.472;13.344;2023-05-07T03:11:33;10.52;;;6.15;;
16770;SDS011;8503;52.472;13.344;2023-05-07T03:12:57;9.15;;;6.07;;
16770;SDS011;8503;52.472;13.344;2023-05-07T03:14:20;7.93;;;5.80;;
16770;SDS011;8503;52.472;13.344;2023-05-07T03:15:43;11.05;;;5.82;;
16770;SDS011;8503;52.472;13.344;2023-05-07T03:17:07;8.20;;;4.07;;
16770;SDS011;8503;52.472;13.344;2023-05-07T03:18:29;7.95;;;6.10;;
16770;SDS011;8503;52.472;13.344;2023-05-07T03:19:52;7.50;;;5.43;;
16770;SDS011;8503;52.472;13.344;2023-05-07T03:21:16;6.97;;;4.70;;
16770;SDS011;8503;52.472;13.344;2023-05-07T03:22:38;9.43;;;5.28;;
16770;SDS011;8503;52.472;13.344;2023-05-07T03:24:05;8.38;;;5.32;;
16770;SDS011;8503;52.472;13.344;2023-05-07T03:25:29;8.20;;;6.30;;
16770;SDS011;8503;52.472;13.344;2023-05-07T03:26:54;8.70;;;5.80;;
16770;SDS011;8503;52.472;13.344;2023-05-07T03:28:19;9.80;;;6.13;;
16770;SDS011;8503;52.472;13.344;2023-05-07T03:29:43;7.38;;;5.68;;
16770;SDS011;8503;52.472;13.344;2023-05-07T03:31:05;6.28;;;4.13;;
16770;SDS011;8503;52.472;13.344;2023-05-07T03:32:29;8.30;;;5.70;;
16770;SDS011;8503;52.472;13.344;2023-05-07T03:33:53;8.38;;;5.53;;
16770;SDS011;8503;52.472;13.344;2023-05-07T03:35:17;9.38;;;6.07;;
16770;SDS011;8503;52.472;13.344;2023-05-07T03:36:40;7.38;;;4.88;;
16770;SDS011;8503;52.472;13.344;2023-05-07T03:38:04;7.07;;;4.93;;
16770;SDS011;8503;52.472;13.344;2023-05-07T03:39:27;5.65;;;4.03;;
16770;SDS011;8503;52.472;13.344;2023-05-07T03:40:51;6.28;;;5.15;;
16770;SDS011;8503;52.472;13.344;2023-05-07T03:42:14;7.45;;;4.95;;
16770;SDS011;8503;52.472;13.344;2023-05-07T03:43:38;8.15;;;5.38;;
16770;SDS011;8503;52.472;13.344;2023-05-07T03:45:00;6.85;;;4.90;;
16770;SDS011;8503;52.472;13.344;2023-05-07T03:46:24;7.22;;;4.57;;
16770;SDS011;8503;52.472;13.344;2023-05-07T03:47:47;9.52;;;5.18;;
16770;SDS011;8503;52.472;13.344;2023-05-07T03:49:11;5.25;;;4.35;;
16770;SDS011;8503;52.472;13.344;2023-05-07T03:50:33;7.18;;;5.20;;
16770;SDS011;8503;52.472;13.344;2023-05-07T03:51:57;8.18;;;5.47;;
16770;SDS011;8503;52.472;13.344;2023-05-07T03:53:19;7.05;;;4.20;;
16770;SDS011;8503;52.472;13.344;2023-05-07T03:54:43;13.55;;;4.88;;
16770;SDS011;8503;52.472;13.344;2023-05-07T03:56:10;9.00;;;5.25;;
16770;SDS011;8503;52.472;13.344;2023-05-07T03:57:33;7.07;;;5.35;;
16770;SDS011;8503;52.472;13.344;2023-05-07T03:58:56;13.63;;;6.03;;
16770;SDS011;8503;52.472;13.344;2023-05-07T04:00:20;8.30;;;5.55;;
16770;SDS011;8503;52.472;13.344;2023-05-07T04:01:43;6.85;;;5.47;;
16770;SDS011;8503;52.472;13.344;2023-05-07T04:03:07;7.72;;;6.07;;
16770;SDS011;8503;52.472;13.344;2023-05-07T04:04:30;8.68;;;5.25;;
16770;SDS011;8503;52.472;13.344;2023-05-07T04:05:54;11.80;;;5.45;;
16770;SDS011;8503;52.472;13.344;2023-05-07T04:07:17;9.50;;;5.35;;
16770;SDS011;8503;52.472;13.344;2023-05-07T04:08:41;9.27;;;5.35;;
16770;SDS011;8503;52.472;13.344;2023-05-07T04:10:04;9.02;;;6.18;;
16770;SDS011;8503;52.472;13.344;2023-05-07T04:11:30;8.68;;;5.13;;
16770;SDS011;8503;52.472;13.344;2023-05-07T04:12:52;6.70;;;4.65;;
16770;SDS011;8503;52.472;13.344;2023-05-07T04:14:16;8.00;;;4.93;;
16770;SDS011;8503;52.472;13.344;2023-05-07T04:15:39;7.82;;;5.70;;
16770;SDS011;8503;52.472;13.344;2023-05-07T04:17:02;9.68;;;5.05;;
16770;SDS011;8503;52.472;13.344;2023-05-07T04:18:27;10.07;;;5.68;;
16770;SDS011;8503;52.472;13.344;2023-05-07T04:19:50;9.40;;;5.72;;
16770;SDS011;8503;52.472;13.344;2023-05-07T04:21:16;8.45;;;5.53;;
16770;SDS011;8503;52.472;13.344;2023-05-07T04:22:40;7.65;;;5.53;;
16770;SDS011;8503;52.472;13.344;2023-05-07T04:24:02;5.85;;;4.78;;
16770;SDS011;8503;52.472;13.344;2023-05-07T04:25:26;15.25;;;5.57;;
16770;SDS011;8503;52.472;13.344;2023-05-07T04:26:51;8.40;;;4.97;;
16770;SDS011;8503;52.472;13.344;2023-05-07T04:28:14;9.90;;;4.97;;
16770;SDS011;8503;52.472;13.344;2023-05-07T04:29:37;9.25;;;5.70;;
16770;SDS011;8503;52.472;13.344;2023-05-07T04:31:03;9.25;;;4.60;;
16770;SDS011;8503;52.472;13.344;2023-05-07T04:32:26;6.78;;;4.65;;
16770;SDS011;8503;52.472;13.344;2023-05-07T04:33:50;7.80;;;4.10;;
16770;SDS011;8503;52.472;13.344;2023-05-07T04:35:14;8.13;;;4.75;;
16770;SDS011;8503;52.472;13.344;2023-05-07T04:36:37;8.02;;;4.90;;
16770;SDS011;8503;52.472;13.344;2023-05-07T04:38:00;6.25;;;4.53;;
16770;SDS011;8503;52.472;13.344;2023-05-07T04:39:23;7.40;;;4.43;;
16770;SDS011;8503;52.472;13.344;2023-05-07T04:40:46;10.35;;;5.00;;
16770;SDS011;8503;52.472;13.344;2023-05-07T04:42:13;8.48;;;4.85;;
16770;SDS011;8503;52.472;13.344;2023-05-07T04:43:37;6.47;;;4.60;;
16770;SDS011;8503;52.472;13.344;2023-05-07T04:45:00;5.32;;;3.95;;
16770;SDS011;8503;52.472;13.344;2023-05-07T04:46:24;5.13;;;3.55;;
16770;SDS011;8503;52.472;13.344;2023-05-07T04:47:48;6.82;;;3.53;;
16770;SDS011;8503;52.472;13.344;2023-05-07T04:49:11;7.10;;;5.18;;
16770;SDS011;8503;52.472;13.344;2023-05-07T04:50:34;5.88;;;4.47;;
16770;SDS011;8503;52.472;13.344;2023-05-07T04:51:57;7.93;;;5.43;;
16770;SDS011;8503;52.472;13.344;2023-05-07T04:53:20;7.85;;;4.72;;
16770;SDS011;8503;52.472;13.344;2023-05-07T04:54:43;6.15;;;4.47;;
16770;SDS011;8503;52.472;13.344;2023-05-07T04:56:06;6.07;;;4.60;;
16770;SDS011;8503;52.472;13.344;2023-05-07T04:57:30;8.68;;;5.07;;
16770;SDS011;8503;52.472;13.344;2023-05-07T04:58:53;7.72;;;4.45;;
16770;SDS011;8503;52.472;13.344;2023-05-07T05:00:17;5.88;;;4.45;;
16770;SDS011;8503;52.472;13.344;2023-05-07T05:01:40;8.00;;;4.32;;
16770;SDS011;8503;52.472;13.344;2023-05-07T05:03:04;4.93;;;3.65;;
16770;SDS011;8503;52.472;13.344;2023-05-07T05:04:31;7.40;;;4.35;;
16770;SDS011;8503;52.472;13.344;2023-05-07T05:05:54;3.17;;;2.58;;
16770;SDS011;8503;52.472;13.344;2023-05-07T05:07:20;6.07;;;3.95;;
16770;SDS011;8503;52.472;13.344;2023-05-07T05:08:43;8.82;;;4.75;;
16770;SDS011;8503;52.472;13.344;2023-05-07T05:10:07;7.30;;;4.97;;
16770;SDS011;8503;52.472;13.344;2023-05-07T05:11:34;7.22;;;5.22;;
16770;SDS011;8503;52.472;13.344;2023-05-07T05:12:59;10.48;;;4.55;;
16770;SDS011;8503;52.472;13.344;2023-05-07T05:14:22;3.38;;;3.08;;
16770;SDS011;8503;52.472;13.344;2023-05-07T05:15:46;6.97;;;3.85;;
16770;SDS011;8503;52.472;13.344;2023-05-07T05:17:10;9.18;;;5.18;;
16770;SDS011;8503;52.472;13.344;2023-05-07T05:18:34;5.57;;;3.83;;
16770;SDS011;8503;52.472;13.344;2023-05-07T05:19:59;7.20;;;4.10;;
16770;SDS011;8503;52.472;13.344;2023-05-07T05:21:22;6.43;;;4.15;;
16770;SDS011;8503;52.472;13.344;2023-05-07T05:22:44;5.57;;;3.50;;
16770;SDS011;8503;52.472;13.344;2023-05-07T05:24:08;6.70;;;3.72;;
16770;SDS011;8503;52.472;13.344;2023-05-07T05:25:32;4.57;;;3.65;;
16770;SDS011;8503;52.472;13.344;2023-05-07T05:26:55;5.85;;;4.35;;
16770;SDS011;8503;52.472;13.344;2023-05-07T05:28:19;5.80;;;4.10;;
16770;SDS011;8503;52.472;13.344;2023-05-07T05:29:43;7.25;;;4.05;;
16770;SDS011;8503;52.472;13.344;2023-05-07T05:31:07;5.03;;;4.25;;
16770;SDS011;8503;52.472;13.344;2023-05-07T05:32:31;6.03;;;4.00;;
16770;SDS011;8503;52.472;13.344;2023-05-07T05:33:55;8.00;;;3.60;;
16770;SDS011;8503;52.472;13.344;2023-05-07T05:35:18;6.10;;;4.32;;
16770;SDS011;8503;52.472;13.344;2023-05-07T05:36:42;6.53;;;4.25;;
16770;SDS011;8503;52.472;13.344;2023-05-07T05:38:05;6.25;;;4.03;;
16770;SDS011;8503;52.472;13.344;2023-05-07T05:39:29;4.13;;;3.47;;
16770;SDS011;8503;52.472;13.344;2023-05-07T05:40:52;6.22;;;4.03;;
16770;SDS011;8503;52.472;13.344;2023-05-07T05:42:17;6.53;;;4.30;;
16770;SDS011;8503;52.472;13.344;2023-05-07T05:43:40;4.05;;;3.22;;
16770;SDS011;8503;52.472;13.344;2023-05-07T05:45:04;8.25;;;4.38;;
16770;SDS011;8503;52.472;13.344;2023-05-07T05:46:27;5.88;;;4.13;;
16770;SDS011;8503;52.472;13.344;2023-05-07T05:47:51;7.53;;;4.05;;
16770;SDS011;8503;52.472;13.344;2023-05-07T05:49:15;6.82;;;4.57;;
16770;SDS011;8503;52.472;13.344;2023-05-07T05:50:38;3.30;;;2.40;;
16770;SDS011;8503;52.472;13.344;2023-05-07T05:52:04;6.40;;;4.35;;
16770;SDS011;8503;52.472;13.344;2023-05-07T05:53:26;7.38;;;4.05;;
16770;SDS011;8503;52.472;13.344;2023-05-07T05:54:49;8.00;;;4.68;;
16770;SDS011;8503;52.472;13.344;2023-05-07T05:56:12;8.77;;;4.90;;
16770;SDS011;8503;52.472;13.344;2023-05-07T05:57:36;8.80;;;4.32;;
16770;SDS011;8503;52.472;13.344;2023-05-07T05:59:00;5.22;;;4.00;;
16770;SDS011;8503;52.472;13.344;2023-05-07T06:00:23;6.47;;;4.13;;
16770;SDS011;8503;52.472;13.344;2023-05-07T06:01:47;7.78;;;4.40;;
16770;SDS011;8503;52.472;13.344;2023-05-07T06:03:10;5.55;;;4.05;;
16770;SDS011;8503;52.472;13.344;2023-05-07T06:04:34;6.57;;;4.40;;
16770;SDS011;8503;52.472;13.344;2023-05-07T06:05:58;9.32;;;4.55;;
16770;SDS011;8503;52.472;13.344;2023-05-07T06:07:21;7.35;;;3.70;;
16770;SDS011;8503;52.472;13.344;2023-05-07T06:08:44;5.15;;;3.10;;
16770;SDS011;8503;52.472;13.344;2023-05-07T06:10:08;8.32;;;4.40;;
16770;SDS011;8503;52.472;13.344;2023-05-07T06:11:31;5.22;;;3.88;;
16770;SDS011;8503;52.472;13.344;2023-05-07T06:12:55;6.40;;;4.32;;
16770;SDS011;8503;52.472;13.344;2023-05-07T06:14:20;5.35;;;4.13;;
16770;SDS011;8503;52.472;13.344;2023-05-07T06:15:43;9.27;;;3.80;;
16770;SDS011;8503;52.472;13.344;2023-05-07T06:17:10;4.00;;;3.50;;
16770;SDS011;8503;52.472;13.344;2023-05-07T06:18:34;4.80;;;4.00;;
16770;SDS011;8503;52.472;13.344;2023-05-07T06:19:58;8.98;;;4.10;;
16770;SDS011;8503;52.472;13.344;2023-05-07T06:21:21;3.72;;;2.67;;
16770;SDS011;8503;52.472;13.344;2023-05-07T06:22:45;7.35;;;4.20;;
16770;SDS011;8503;52.472;13.344;2023-05-07T06:24:07;7.38;;;4.10;;
16770;SDS011;8503;52.472;13.344;2023-05-07T06:25:31;5.78;;;4.40;;
16770;SDS011;8503;52.472;13.344;2023-05-07T06:26:54;5.80;;;4.15;;
16770;SDS011;8503;52.472;13.344;2023-05-07T06:28:19;3.97;;;2.95;;
16770;SDS011;8503;52.472;13.344;2023-05-07T06:29:43;6.55;;;3.67;;
16770;SDS011;8503;52.472;13.344;2023-05-07T06:31:13;7.50;;;4.72;;
16770;SDS011;8503;52.472;13.344;2023-05-07T06:32:39;5.25;;;3.80;;
16770;SDS011;8503;52.472;13.344;2023-05-07T06:34:03;5.45;;;3.38;;
16770;SDS011;8503;52.472;13.344;2023-05-07T06:35:26;5.25;;;3.83;;
16770;SDS011;8503;52.472;13.344;2023-05-07T06:36:50;6.15;;;4.10;;
16770;SDS011;8503;52.472;13.344;2023-05-07T06:38:14;8.45;;;4.35;;
16770;SDS011;8503;52.472;13.344;2023-05-07T06:39:38;5.18;;;2.83;;
16770;SDS011;8503;52.472;13.344;2023-05-07T06:41:02;6.93;;;4.20;;
16770;SDS011;8503;52.472;13.344;2023-05-07T06:42:24;6.40;;;4.38;;
16770;SDS011;8503;52.472;13.344;2023-05-07T06:43:48;7.13;;;4.35;;
16770;SDS011;8503;52.472;13.344;2023-05-07T06:45:12;4.43;;;3.97;;
16770;SDS011;8503;52.472;13.344;2023-05-07T06:46:35;6.35;;;4.40;;
16770;SDS011;8503;52.472;13.344;2023-05-07T06:47:58;5.85;;;2.85;;
16770;SDS011;8503;52.472;13.344;2023-05-07T06:49:22;8.10;;;4.13;;
16770;SDS011;8503;52.472;13.344;2023-05-07T06:50:45;7.78;;;4.57;;
16770;SDS011;8503;52.472;13.344;2023-05-07T06:52:09;6.45;;;4.35;;
16770;SDS011;8503;52.472;13.344;2023-05-07T06:53:32;6.32;;;4.35;;
16770;SDS011;8503;52.472;13.344;2023-05-07T06:54:57;8.52;;;4.35;;
16770;SDS011;8503;52.472;13.344;2023-05-07T06:56:20;6.53;;;4.05;;
16770;SDS011;8503;52.472;13.344;2023-05-07T06:57:44;7.35;;;4.15;;
16770;SDS011;8503;52.472;13.344;2023-05-07T06:59:08;4.82;;;3.67;;
16770;SDS011;8503;52.472;13.344;2023-05-07T07:00:31;4.10;;;3.42;;
16770;SDS011;8503;52.472;13.344;2023-05-07T07:01:56;6.10;;;3.65;;
16770;SDS011;8503;52.472;13.344;2023-05-07T07:03:19;3.53;;;2.83;;
16770;SDS011;8503;52.472;13.344;2023-05-07T07:04:42;5.50;;;3.08;;
16770;SDS011;8503;52.472;13.344;2023-05-07T07:06:06;6.53;;;4.38;;
16770;SDS011;8503;52.472;13.344;2023-05-07T07:07:30;4.95;;;3.83;;
16770;SDS011;8503;52.472;13.344;2023-05-07T07:08:52;5.45;;;3.85;;
16770;SDS011;8503;52.472;13.344;2023-05-07T07:10:15;6.00;;;3.25;;
16770;SDS011;8503;52.472;13.344;2023-05-07T07:11:40;5.80;;;3.28;;
16770;SDS011;8503;52.472;13.344;2023-05-07T07:13:03;3.97;;;3.30;;
16770;SDS011;8503;52.472;13.344;2023-05-07T07:14:27;7.32;;;3.25;;
16770;SDS011;8503;52.472;13.344;2023-05-07T07:15:52;5.07;;;3.45;;
16770;SDS011;8503;52.472;13.344;2023-05-07T07:17:15;4.40;;;3.38;;
16770;SDS011;8503;52.472;13.344;2023-05-07T07:18:38;6.20;;;3.30;;
16770;SDS011;8503;52.472;13.344;2023-05-07T07:20:01;5.20;;;3.80;;
16770;SDS011;8503;52.472;13.344;2023-05-07T07:21:25;5.00;;;3.30;;
16770;SDS011;8503;52.472;13.344;2023-05-07T07:22:49;4.82;;;3.30;;
16770;SDS011;8503;52.472;13.344;2023-05-07T07:24:12;4.88;;;3.13;;
16770;SDS011;8503;52.472;13.344;2023-05-07T07:25:40;8.85;;;4.03;;
16770;SDS011;8503;52.472;13.344;2023-05-07T07:27:03;4.80;;;3.47;;
16770;SDS011;8503;52.472;13.344;2023-05-07T07:28:26;7.03;;;3.60;;
16770;SDS011;8503;52.472;13.344;2023-05-07T07:29:49;8.10;;;3.60;;
16770;SDS011;8503;52.472;13.344;2023-05-07T07:31:14;4.15;;;3.10;;
16770;SDS011;8503;52.472;13.344;2023-05-07T07:32:38;4.28;;;2.88;;
16770;SDS011;8503;52.472;13.344;2023-05-07T07:34:01;3.88;;;2.58;;
16770;SDS011;8503;52.472;13.344;2023-05-07T07:35:25;6.10;;;3.33;;
16770;SDS011;8503;52.472;13.344;2023-05-07T07:36:47;4.38;;;2.85;;
16770;SDS011;8503;52.472;13.344;2023-05-07T07:38:11;3.78;;;2.80;;
16770;SDS011;8503;52.472;13.344;2023-05-07T07:39:35;3.50;;;2.67;;
16770;SDS011;8503;52.472;13.344;2023-05-07T07:40:59;2.92;;;2.63;;
16770;SDS011;8503;52.472;13.344;2023-05-07T07:42:21;5.20;;;2.90;;
16770;SDS011;8503;52.472;13.344;2023-05-07T07:43:45;4.00;;;2.60;;
16770;SDS011;8503;52.472;13.344;2023-05-07T07:45:10;2.50;;;2.30;;
16770;SDS011;8503;52.472;13.344;2023-05-07T07:46:35;3.20;;;2.90;;
16770;SDS011;8503;52.472;13.344;2023-05-07T07:47:58;3.28;;;2.85;;
16770;SDS011;8503;52.472;13.344;2023-05-07T07:49:22;4.95;;;3.03;;
16770;SDS011;8503;52.472;13.344;2023-05-07T07:50:48;4.00;;;2.90;;
16770;SDS011;8503;52.472;13.344;2023-05-07T07:52:12;4.07;;;2.47;;
16770;SDS011;8503;52.472;13.344;2023-05-07T07:53:35;4.15;;;2.60;;
16770;SDS011;8503;52.472;13.344;2023-05-07T07:54:59;9.45;;;2.92;;
16770;SDS011;8503;52.472;13.344;2023-05-07T07:56:23;4.68;;;2.80;;
16770;SDS011;8503;52.472;13.344;2023-05-07T07:57:47;2.65;;;2.40;;
16770;SDS011;8503;52.472;13.344;2023-05-07T07:59:11;6.18;;;2.50;;
16770;SDS011;8503;52.472;13.344;2023-05-07T08:00:35;4.97;;;2.92;;
16770;SDS011;8503;52.472;13.344;2023-05-07T08:02:00;4.05;;;2.67;;
16770;SDS011;8503;52.472;13.344;2023-05-07T08:03:23;5.15;;;2.88;;
16770;SDS011;8503;52.472;13.344;2023-05-07T08:04:47;4.07;;;2.83;;
16770;SDS011;8503;52.472;13.344;2023-05-07T08:06:09;3.45;;;2.70;;
16770;SDS011;8503;52.472;13.344;2023-05-07T08:07:39;3.83;;;2.45;;
16770;SDS011;8503;52.472;13.344;2023-05-07T08:09:02;5.50;;;2.67;;
16770;SDS011;8503;52.472;13.344;2023-05-07T08:10:26;4.32;;;2.80;;
16770;SDS011;8503;52.472;13.344;2023-05-07T08:11:50;4.55;;;2.92;;
16770;SDS011;8503;52.472;13.344;2023-05-07T08:13:13;5.35;;;2.38;;
16770;SDS011;8503;52.472;13.344;2023-05-07T08:14:37;3.67;;;2.75;;
16770;SDS011;8503;52.472;13.344;2023-05-07T08:16:00;3.92;;;2.92;;
16770;SDS011;8503;52.472;13.344;2023-05-07T08:17:25;3.13;;;2.65;;
16770;SDS011;8503;52.472;13.344;2023-05-07T08:18:48;5.78;;;3.00;;
16770;SDS011;8503;52.472;13.344;2023-05-07T08:20:11;3.55;;;2.45;;
16770;SDS011;8503;52.472;13.344;2023-05-07T08:21:37;3.05;;;2.38;;
16770;SDS011;8503;52.472;13.344;2023-05-07T08:23:02;3.03;;;2.53;;